createdAt,value
2022-09-05T00:09:50.521Z,16.9
2022-09-05T00:23:24.220Z,16.8
2022-09-05T00:30:48.670Z,16.7
2022-09-05T00:40:05.495Z,16.6
2022-09-05T00:49:59.495Z,16.5
2022-09-05T01:00:01.485Z,16.4
2022-09-05T01:10:03.682Z,16.3
2022-09-05T01:20:18.763Z,16.2
2022-09-05T01:30:07.846Z,16.1
2022-09-05T01:40:12.711Z,16
2022-09-05T01:50:12.450Z,15.9
2022-09-05T02:10:17.078Z,15.8
2022-09-05T02:20:20.843Z,15.7
2022-09-05T02:30:21.432Z,15.6
2022-09-05T02:45:05.588Z,15.5
2022-09-05T02:52:07.435Z,15.4
2022-09-05T03:00:27.468Z,15.3
2022-09-05T03:10:39.627Z,15.3
2022-09-05T03:20:31.449Z,15.3
2022-09-05T03:30:33.633Z,15.2
2022-09-05T03:40:36.055Z,15.2
2022-09-05T03:52:26.093Z,15.2
2022-09-05T04:00:40.445Z,15.2
2022-09-05T04:10:42.816Z,15
2022-09-05T04:20:44.541Z,14.9
2022-09-05T04:30:46.161Z,14.9
2022-09-05T04:40:48.238Z,14.8
2022-09-05T04:50:50.523Z,14.7
2022-09-05T05:01:50.813Z,14.7
2022-09-05T05:14:07.714Z,14.7
2022-09-05T05:31:01.753Z,14.7
2022-09-05T05:41:01.494Z,14.8
2022-09-05T05:51:03.828Z,15
2022-09-05T06:01:06.032Z,15.5
2022-09-05T06:14:48.007Z,16.7
2022-09-05T06:22:08.075Z,17.6
2022-09-05T06:31:22.554Z,18.5
2022-09-05T06:41:14.817Z,19.3
2022-09-05T06:51:17.235Z,20
2022-09-05T07:01:19.311Z,20
2022-09-05T07:11:21.098Z,20.4
2022-09-05T07:21:26.199Z,20.9
2022-09-05T07:31:26.375Z,21.3
2022-09-05T07:41:27.212Z,21.7
2022-09-05T07:52:43.099Z,22.3
2022-09-05T08:01:31.103Z,22.4
2022-09-05T08:11:33.444Z,22.8
2022-09-05T08:21:39.344Z,23
2022-09-05T08:31:38.527Z,23.3
2022-09-05T08:41:43.035Z,23.8
2022-09-05T08:51:44.824Z,23.7
2022-09-05T09:02:14.305Z,24.4
2022-09-05T09:11:45.819Z,24.4
2022-09-05T09:21:48.052Z,24.8
2022-09-05T09:31:50.560Z,25.1
2022-09-05T09:41:52.889Z,25.5
2022-09-05T09:51:54.618Z,26
2022-09-05T10:01:57.614Z,26.1
2022-09-05T10:11:59.319Z,26.2
2022-09-05T10:32:59.528Z,26.7
2022-09-05T10:42:05.381Z,27
2022-09-05T10:52:13.174Z,27
2022-09-05T11:02:25.658Z,27.2
2022-09-05T11:12:11.512Z,27.2
2022-09-05T11:32:33.156Z,27.1
2022-09-05T11:42:17.559Z,27.5
2022-09-05T11:52:19.943Z,27.7
2022-09-05T12:02:23.201Z,27.3
2022-09-05T12:22:27.623Z,28.3
2022-09-05T13:36:02.649Z,28.7
2022-09-05T13:42:45.201Z,28.8
2022-09-05T13:52:47.309Z,29.3
2022-09-05T14:12:53.755Z,28.5
2022-09-05T14:22:53.324Z,28.2
2022-09-05T14:37:37.588Z,28.3
2022-09-05T14:42:57.670Z,28.7
2022-09-05T15:03:04.795Z,28.5
2022-09-05T15:13:04.917Z,28.4
2022-09-05T15:23:11.123Z,27.6
2022-09-05T15:33:08.912Z,27.6
2022-09-05T15:43:10.635Z,28.1
2022-09-05T15:53:13.078Z,27.6
2022-09-05T16:03:49.767Z,26.4
2022-09-05T16:13:17.496Z,25.9
2022-09-05T16:23:38.820Z,25.8
2022-09-05T16:33:21.259Z,25.8
2022-09-05T16:43:23.410Z,25.8
2022-09-05T16:53:28.437Z,25.7
2022-09-05T17:03:27.172Z,25.5
2022-09-05T17:13:29.756Z,25.3
2022-09-05T17:24:36.016Z,25
2022-09-05T17:33:36.930Z,24.8
2022-09-05T17:43:36.182Z,24.5
2022-09-05T17:53:37.879Z,24.3
2022-09-05T18:03:39.901Z,24
2022-09-05T18:13:41.968Z,23.7
2022-09-05T18:23:46.721Z,23.5
2022-09-05T18:33:54.901Z,23.3
2022-09-05T18:53:50.408Z,22.8
2022-09-05T19:03:52.704Z,22.5
2022-09-05T19:13:55.536Z,22.2
2022-09-05T19:23:56.400Z,22.1
2022-09-05T19:36:47.909Z,21.8
2022-09-05T19:47:32.428Z,21.5
2022-09-05T19:54:05.160Z,21.3
2022-09-05T20:04:04.787Z,21.1
2022-09-05T20:14:06.446Z,20.9
2022-09-05T20:24:09.032Z,20.6
2022-09-05T20:34:14.976Z,20.4
2022-09-05T20:44:13.860Z,20.2
2022-09-05T21:04:18.119Z,19.9
2022-09-05T21:14:20.193Z,19.8
2022-09-05T21:24:22.103Z,19.7
2022-09-05T21:47:36.414Z,19.5
2022-09-05T21:47:45.666Z,19.5
2022-09-05T21:57:40.449Z,19.5
2022-09-05T22:04:41.821Z,19.6
2022-09-05T22:14:42.489Z,19.4
2022-09-05T22:24:44.671Z,19.2
2022-09-05T22:34:46.520Z,19
2022-09-05T22:44:48.877Z,19.3
2022-09-05T22:54:50.714Z,18.9
2022-09-05T23:04:53.259Z,18.8
2022-09-05T23:55:04.333Z,18.4
